createdAt,value
2022-12-23T00:00:56.024Z,7.90
2022-12-23T00:05:54.525Z,7.90
2022-12-23T00:10:53.430Z,8.00
2022-12-23T00:15:51.472Z,8.10
2022-12-23T00:20:50.870Z,8.10
2022-12-23T00:25:48.875Z,8.20
2022-12-23T00:30:48.472Z,8.30
2022-12-23T00:35:47.088Z,8.30
2022-12-23T00:41:03.962Z,8.40
2022-12-23T00:46:02.006Z,8.50
2022-12-23T00:51:00.202Z,8.60
2022-12-23T00:55:59.618Z,8.50
2022-12-23T01:01:15.255Z,8.50
2022-12-23T01:06:13.369Z,8.40
2022-12-23T01:11:13.594Z,8.20
2022-12-23T01:16:17.275Z,8.10
2022-12-23T01:21:16.053Z,8.00
2022-12-23T01:26:15.489Z,8.00
2022-12-23T01:31:13.587Z,8.10
2022-12-23T01:36:12.690Z,8.10
2022-12-23T01:41:36.537Z,8.10
2022-12-23T01:46:34.540Z,8.20
2022-12-23T01:51:32.963Z,8.10
2022-12-23T01:56:36.392Z,8.20
2022-12-23T02:01:51.060Z,8.10
2022-12-23T02:07:09.366Z,8.00
2022-12-23T02:12:35.949Z,8.00
2022-12-23T02:17:41.630Z,8.00
2022-12-23T02:23:01.915Z,8.20
2022-12-23T02:28:21.189Z,8.30
2022-12-23T02:33:36.389Z,8.40
2022-12-23T02:38:43.508Z,8.40
2022-12-23T02:43:46.377Z,8.50
2022-12-23T02:48:51.483Z,8.50
2022-12-23T02:53:55.640Z,8.50
2022-12-23T02:58:57.773Z,8.40
2022-12-23T03:03:57.165Z,8.50
2022-12-23T03:08:57.813Z,8.40
2022-12-23T03:14:14.168Z,8.30
2022-12-23T03:19:21.750Z,8.20
2022-12-23T03:24:25.474Z,8.20
2022-12-23T03:29:28.116Z,8.30
2022-12-23T03:34:30.598Z,8.30
2022-12-23T03:39:33.946Z,8.20
2022-12-23T03:44:36.790Z,8.10
2022-12-23T03:49:39.962Z,8.20
2022-12-23T03:54:44.808Z,8.30
2022-12-23T03:59:46.438Z,8.40
2022-12-23T04:04:59.408Z,8.40
2022-12-23T04:09:59.610Z,8.40
2022-12-23T04:14:57.768Z,8.60
2022-12-23T04:19:57.355Z,8.50
2022-12-23T04:24:55.408Z,8.40
2022-12-23T04:29:53.430Z,8.40
2022-12-23T04:34:51.465Z,8.40
2022-12-23T04:39:50.854Z,8.50
2022-12-23T04:44:50.873Z,8.50
2022-12-23T04:49:49.939Z,8.50
2022-12-23T04:54:47.961Z,8.50
2022-12-23T04:59:47.369Z,8.60
2022-12-23T05:04:45.457Z,8.60
2022-12-23T05:09:43.545Z,8.70
2022-12-23T05:14:41.559Z,8.70
2022-12-23T05:19:40.937Z,8.70
2022-12-23T05:24:39.041Z,8.60
2022-12-23T05:29:37.092Z,8.60
2022-12-23T05:34:35.132Z,8.60
2022-12-23T05:39:34.518Z,8.70
2022-12-23T05:44:32.702Z,8.60
2022-12-23T05:49:30.735Z,8.60
2022-12-23T05:54:28.827Z,8.70
2022-12-23T05:59:31.282Z,8.60
2022-12-23T06:04:29.902Z,8.70
2022-12-23T06:09:27.924Z,8.70
2022-12-23T06:14:29.062Z,8.80
2022-12-23T06:19:29.202Z,8.80
2022-12-23T06:24:27.240Z,8.80
2022-12-23T06:29:25.525Z,8.70
2022-12-23T06:34:23.631Z,8.70
2022-12-23T06:39:23.383Z,8.70
2022-12-23T06:44:21.473Z,8.70
2022-12-23T06:49:19.549Z,8.80
2022-12-23T06:54:17.576Z,8.90
2022-12-23T06:59:17.158Z,8.90
2022-12-23T07:04:15.148Z,9.00
2022-12-23T07:09:13.163Z,9.00
2022-12-23T07:14:11.658Z,9.00
2022-12-23T07:19:11.110Z,9.00
2022-12-23T07:24:09.863Z,9.00
2022-12-23T07:29:07.888Z,9.00
2022-12-23T07:34:05.906Z,9.00
2022-12-23T07:39:05.370Z,8.90
2022-12-23T07:44:03.508Z,8.70
2022-12-23T07:49:01.548Z,8.60
2022-12-23T07:53:59.705Z,8.60
2022-12-23T07:58:59.124Z,8.60
2022-12-23T08:03:57.174Z,8.50
2022-12-23T08:08:55.289Z,8.50
2022-12-23T08:13:53.755Z,8.50
2022-12-23T08:18:55.075Z,8.40
2022-12-23T08:23:53.179Z,8.40
2022-12-23T08:28:53.503Z,8.30
2022-12-23T08:33:55.147Z,8.40
2022-12-23T08:38:54.874Z,8.50
2022-12-23T08:43:53.467Z,8.70
2022-12-23T08:48:52.006Z,8.80
2022-12-23T08:53:57.937Z,8.80
2022-12-23T08:58:58.277Z,8.80
2022-12-23T09:03:56.464Z,8.90
2022-12-23T09:08:56.483Z,8.90
2022-12-23T09:13:55.932Z,8.70
2022-12-23T09:18:53.972Z,8.70
2022-12-23T09:23:52.404Z,8.70
2022-12-23T09:28:52.192Z,8.80
2022-12-23T09:33:53.283Z,8.80
2022-12-23T09:38:55.721Z,8.70
2022-12-23T09:44:07.225Z,8.70
2022-12-23T09:49:10.239Z,8.60
2022-12-23T09:54:17.055Z,8.70
2022-12-23T09:59:27.327Z,8.80
2022-12-23T10:04:40.486Z,8.90
2022-12-23T10:09:40.530Z,8.90
2022-12-23T10:14:41.817Z,8.80
2022-12-23T10:19:43.358Z,8.70
2022-12-23T10:24:43.859Z,8.70
2022-12-23T10:29:43.923Z,8.70
2022-12-23T10:34:52.457Z,8.70
2022-12-23T10:40:02.222Z,8.90
2022-12-23T10:45:10.980Z,9.00
2022-12-23T10:50:28.930Z,9.10
2022-12-23T10:55:33.413Z,9.10
2022-12-23T11:00:33.662Z,9.10
2022-12-23T11:05:33.948Z,9.20
2022-12-23T11:10:34.294Z,9.40
2022-12-23T11:15:35.984Z,9.50
2022-12-23T11:20:37.195Z,9.60
2022-12-23T11:25:37.891Z,9.40
2022-12-23T11:30:52.027Z,9.30
2022-12-23T11:36:02.958Z,9.30
2022-12-23T11:41:01.227Z,9.30
2022-12-23T11:46:25.239Z,9.20
2022-12-23T11:51:27.073Z,9.20
2022-12-23T11:56:27.022Z,9.20
2022-12-23T12:01:26.867Z,9.10
2022-12-23T12:06:25.201Z,9.00
2022-12-23T12:11:28.109Z,9.00
2022-12-23T12:16:45.153Z,8.80
2022-12-23T12:21:44.701Z,8.70
2022-12-23T12:26:45.040Z,8.80
2022-12-23T12:31:48.484Z,8.90
2022-12-23T12:36:51.246Z,8.90
2022-12-23T12:41:54.758Z,9.00
2022-12-23T12:47:11.099Z,9.10
2022-12-23T12:52:23.115Z,9.30
2022-12-23T12:57:23.735Z,9.50
2022-12-23T13:02:36.972Z,9.70
2022-12-23T13:07:44.639Z,9.80
2022-12-23T13:12:54.684Z,9.80
2022-12-23T13:18:12.488Z,9.70
2022-12-23T13:23:42.490Z,9.60
2022-12-23T13:28:42.528Z,9.40
2022-12-23T13:33:48.843Z,9.30
2022-12-23T13:39:10.664Z,9.40
2022-12-23T13:44:10.988Z,9.40
2022-12-23T13:49:18.199Z,9.40
2022-12-23T13:54:28.624Z,9.30
2022-12-23T13:59:39.585Z,9.20
2022-12-23T14:04:58.748Z,9.20
2022-12-23T14:10:00.284Z,9.10
2022-12-23T14:15:30.219Z,9.10
2022-12-23T14:20:42.161Z,9.10
2022-12-23T14:25:53.464Z,9.10
2022-12-23T14:30:51.748Z,9.10
2022-12-23T14:35:54.976Z,9.10
2022-12-23T14:41:27.444Z,9.10
2022-12-23T14:46:59.431Z,9.20
2022-12-23T14:52:46.073Z,9.20
2022-12-23T14:57:44.792Z,9.10
2022-12-23T15:02:43.074Z,9.10
2022-12-23T15:07:44.873Z,9.10
2022-12-23T15:12:47.316Z,9.10
2022-12-23T15:17:45.364Z,9.10
2022-12-23T15:22:46.021Z,9.10
2022-12-23T15:27:44.084Z,9.10
2022-12-23T15:32:43.650Z,9.20
2022-12-23T15:37:41.803Z,9.10
2022-12-23T15:42:48.778Z,9.10
2022-12-23T15:47:46.819Z,9.10
2022-12-23T15:52:47.283Z,9.10
2022-12-23T15:57:50.675Z,9.00
2022-12-23T16:03:00.373Z,9.00
2022-12-23T16:08:26.765Z,9.00
2022-12-23T16:13:28.939Z,8.90
2022-12-23T16:18:31.661Z,8.90
2022-12-23T16:23:31.788Z,8.80
2022-12-23T16:28:37.013Z,8.90
2022-12-23T16:33:37.771Z,8.90
2022-12-23T16:38:35.792Z,9.00
2022-12-23T16:43:35.193Z,9.00
2022-12-23T16:48:36.148Z,9.00
2022-12-23T16:53:34.263Z,9.00
2022-12-23T16:58:32.326Z,9.00
2022-12-23T17:03:32.531Z,9.00
2022-12-23T17:08:30.605Z,9.20
2022-12-23T17:13:28.701Z,9.10
2022-12-23T17:18:26.768Z,9.10
2022-12-23T17:23:29.015Z,9.00
2022-12-23T17:28:30.971Z,9.00
2022-12-23T17:33:31.291Z,9.00
2022-12-23T17:38:30.766Z,9.00
2022-12-23T17:43:29.163Z,8.90
2022-12-23T17:48:31.573Z,9.00
2022-12-23T17:53:31.245Z,8.90
2022-12-23T17:58:29.298Z,8.90
2022-12-23T18:03:27.318Z,8.80
2022-12-23T18:08:25.830Z,8.90
2022-12-23T18:13:25.221Z,9.00
2022-12-23T18:18:32.988Z,9.00
2022-12-23T18:23:37.153Z,9.00
2022-12-23T18:28:36.671Z,9.00
2022-12-23T18:33:34.687Z,9.20
2022-12-23T18:38:32.767Z,9.00
2022-12-23T18:43:30.810Z,9.00
2022-12-23T18:48:30.414Z,9.00
2022-12-23T18:53:28.528Z,9.00
2022-12-23T18:58:26.615Z,9.10
2022-12-23T19:03:26.169Z,9.10
2022-12-23T19:08:27.857Z,9.10
2022-12-23T19:13:26.556Z,9.10
2022-12-23T19:18:24.704Z,9.10
2022-12-23T19:23:22.739Z,9.10
2022-12-23T19:28:22.233Z,9.10
2022-12-23T19:33:20.304Z,9.10
2022-12-23T19:38:18.347Z,9.10
2022-12-23T19:43:16.372Z,9.00
2022-12-23T19:48:15.762Z,9.00
2022-12-23T19:53:15.077Z,9.00
2022-12-23T19:58:13.153Z,9.00
2022-12-23T20:03:11.263Z,8.90
2022-12-23T20:08:10.722Z,8.90
2022-12-23T20:13:08.799Z,8.80
2022-12-23T20:18:06.990Z,8.80
2022-12-23T20:23:05.241Z,8.70
2022-12-23T20:28:04.780Z,8.80
2022-12-23T20:33:02.846Z,8.70
2022-12-23T20:38:00.922Z,8.60
2022-12-23T20:42:59.244Z,8.60
2022-12-23T20:47:58.653Z,8.80
2022-12-23T20:52:56.671Z,8.60
2022-12-23T20:57:54.706Z,8.50
2022-12-23T21:02:52.832Z,8.50
2022-12-23T21:07:52.274Z,8.50
2022-12-23T21:12:50.399Z,8.40
2022-12-23T21:17:48.393Z,8.50
2022-12-23T21:22:46.428Z,8.40
2022-12-23T21:27:45.859Z,8.40
2022-12-23T21:32:43.921Z,8.40
2022-12-23T21:37:42.136Z,8.40
2022-12-23T21:42:40.203Z,8.40
2022-12-23T21:47:39.630Z,8.30
2022-12-23T21:52:37.654Z,8.30
2022-12-23T21:57:35.684Z,8.30
2022-12-23T22:02:33.846Z,8.30
2022-12-23T22:07:33.290Z,8.20
2022-12-23T22:12:31.339Z,8.20
2022-12-23T22:17:29.417Z,8.10
2022-12-23T22:22:27.523Z,8.00
2022-12-23T22:27:26.956Z,8.00
2022-12-23T22:32:24.999Z,8.00
2022-12-23T22:37:23.050Z,7.90
2022-12-23T22:42:21.197Z,7.90
2022-12-23T22:47:20.612Z,7.90
2022-12-23T22:52:18.805Z,8.00
2022-12-23T22:57:16.844Z,8.00
2022-12-23T23:02:15.007Z,8.00
2022-12-23T23:07:14.475Z,8.00
2022-12-23T23:12:12.524Z,7.90
2022-12-23T23:17:10.536Z,7.90
2022-12-23T23:22:08.615Z,7.90
2022-12-23T23:27:08.028Z,7.90
2022-12-23T23:32:08.112Z,7.90
2022-12-23T23:37:06.261Z,7.90
2022-12-23T23:42:04.395Z,7.90
2022-12-23T23:47:03.747Z,8.00
2022-12-23T23:52:01.769Z,8.00
2022-12-23T23:56:59.791Z,8.00
